sensor_id;sensor_type;location;lat;lon;timestamp;temperature;humidity
19538;DHT22;9914;51.008;4.300;2023-09-18T00:02:26;21.90;99.90
19538;DHT22;9914;51.008;4.300;2023-09-18T00:04:52;22.00;99.90
19538;DHT22;9914;51.008;4.300;2023-09-18T00:07:18;21.90;99.90
19538;DHT22;9914;51.008;4.300;2023-09-18T00:09:43;21.90;99.90
19538;DHT22;9914;51.008;4.300;2023-09-18T00:12:09;21.90;99.90
19538;DHT22;9914;51.008;4.300;2023-09-18T00:14:36;21.70;99.90
19538;DHT22;9914;51.008;4.300;2023-09-18T00:17:02;21.90;99.90
19538;DHT22;9914;51.008;4.300;2023-09-18T00:19:28;21.80;99.90
19538;DHT22;9914;51.008;4.300;2023-09-18T00:21:54;21.80;99.90
19538;DHT22;9914;51.008;4.300;2023-09-18T00:24:20;21.70;99.90
19538;DHT22;9914;51.008;4.300;2023-09-18T00:26:47;21.90;99.90
19538;DHT22;9914;51.008;4.300;2023-09-18T00:29:13;22.00;99.90
19538;DHT22;9914;51.008;4.300;2023-09-18T00:31:39;21.90;99.90
19538;DHT22;9914;51.008;4.300;2023-09-18T00:34:05;21.80;99.90
19538;DHT22;9914;51.008;4.300;2023-09-18T00:36:30;21.80;99.90
19538;DHT22;9914;51.008;4.300;2023-09-18T00:38:56;22.10;99.90
19538;DHT22;9914;51.008;4.300;2023-09-18T00:41:22;22.00;99.90
19538;DHT22;9914;51.008;4.300;2023-09-18T00:43:47;21.90;99.90
19538;DHT22;9914;51.008;4.300;2023-09-18T00:46:13;21.90;99.90
19538;DHT22;9914;51.008;4.300;2023-09-18T00:48:39;21.90;99.90
19538;DHT22;9914;51.008;4.300;2023-09-18T00:51:06;22.20;99.90
19538;DHT22;9914;51.008;4.300;2023-09-18T00:53:32;22.30;99.90
19538;DHT22;9914;51.008;4.300;2023-09-18T00:55:59;22.50;99.90
19538;DHT22;9914;51.008;4.300;2023-09-18T00:58:26;22.50;99.90
19538;DHT22;9914;51.008;4.300;2023-09-18T01:00:52;22.50;99.90
19538;DHT22;9914;51.008;4.300;2023-09-18T01:03:19;22.40;99.90
19538;DHT22;9914;51.008;4.300;2023-09-18T01:05:45;22.40;99.90
19538;DHT22;9914;51.008;4.300;2023-09-18T01:08:11;22.30;99.90
19538;DHT22;9914;51.008;4.300;2023-09-18T01:13:15;22.10;99.90
19538;DHT22;9914;51.008;4.300;2023-09-18T01:15:54;22.20;99.90
19538;DHT22;9914;51.008;4.300;2023-09-18T01:18:22;22.30;99.90
19538;DHT22;9914;51.008;4.300;2023-09-18T01:20:48;22.40;99.90
19538;DHT22;9914;51.008;4.300;2023-09-18T01:23:14;22.30;99.90
19538;DHT22;9914;51.008;4.300;2023-09-18T01:25:40;22.40;99.90
19538;DHT22;9914;51.008;4.300;2023-09-18T01:28:05;22.40;99.90
19538;DHT22;9914;51.008;4.300;2023-09-18T01:30:31;22.40;99.90
19538;DHT22;9914;51.008;4.300;2023-09-18T01:32:58;22.40;99.90
19538;DHT22;9914;51.008;4.300;2023-09-18T01:35:26;22.30;99.90
19538;DHT22;9914;51.008;4.300;2023-09-18T01:37:59;22.20;99.90
19538;DHT22;9914;51.008;4.300;2023-09-18T01:40:26;22.10;99.90
19538;DHT22;9914;51.008;4.300;2023-09-18T01:42:53;22.20;99.90
19538;DHT22;9914;51.008;4.300;2023-09-18T01:45:18;22.30;99.90
19538;DHT22;9914;51.008;4.300;2023-09-18T01:47:45;22.30;99.90
19538;DHT22;9914;51.008;4.300;2023-09-18T01:50:11;22.20;99.90
19538;DHT22;9914;51.008;4.300;2023-09-18T01:52:37;21.90;99.90
19538;DHT22;9914;51.008;4.300;2023-09-18T01:55:03;21.80;99.90
19538;DHT22;9914;51.008;4.300;2023-09-18T01:57:33;21.80;99.90
19538;DHT22;9914;51.008;4.300;2023-09-18T01:59:58;21.70;99.90
19538;DHT22;9914;51.008;4.300;2023-09-18T02:02:24;21.80;99.90
19538;DHT22;9914;51.008;4.300;2023-09-18T02:04:50;21.50;99.90
19538;DHT22;9914;51.008;4.300;2023-09-18T02:07:15;21.40;99.90
19538;DHT22;9914;51.008;4.300;2023-09-18T02:09:41;21.40;99.90
19538;DHT22;9914;51.008;4.300;2023-09-18T02:12:07;21.40;99.90
19538;DHT22;9914;51.008;4.300;2023-09-18T02:14:33;21.40;99.90
19538;DHT22;9914;51.008;4.300;2023-09-18T02:16:59;21.60;99.90
19538;DHT22;9914;51.008;4.300;2023-09-18T02:19:25;21.80;99.90
19538;DHT22;9914;51.008;4.300;2023-09-18T02:21:52;22.00;99.90
19538;DHT22;9914;51.008;4.300;2023-09-18T02:24:21;22.10;99.90
19538;DHT22;9914;51.008;4.300;2023-09-18T02:26:46;22.20;99.90
19538;DHT22;9914;51.008;4.300;2023-09-18T02:29:12;22.00;99.90
19538;DHT22;9914;51.008;4.300;2023-09-18T02:31:39;21.90;99.90
19538;DHT22;9914;51.008;4.300;2023-09-18T02:34:06;21.90;99.90
19538;DHT22;9914;51.008;4.300;2023-09-18T02:36:33;21.80;99.90
19538;DHT22;9914;51.008;4.300;2023-09-18T02:38:58;21.70;99.90
19538;DHT22;9914;51.008;4.300;2023-09-18T02:41:24;21.70;99.90
19538;DHT22;9914;51.008;4.300;2023-09-18T02:43:50;21.70;99.90
19538;DHT22;9914;51.008;4.300;2023-09-18T02:46:15;21.90;99.90
19538;DHT22;9914;51.008;4.300;2023-09-18T02:48:41;22.00;99.90
19538;DHT22;9914;51.008;4.300;2023-09-18T02:51:07;21.80;99.90
19538;DHT22;9914;51.008;4.300;2023-09-18T02:53:33;21.70;99.90
19538;DHT22;9914;51.008;4.300;2023-09-18T02:55:59;21.50;99.90
19538;DHT22;9914;51.008;4.300;2023-09-18T02:58:26;21.50;99.90
19538;DHT22;9914;51.008;4.300;2023-09-18T03:00:54;21.60;99.90
19538;DHT22;9914;51.008;4.300;2023-09-18T03:03:20;21.70;99.90
19538;DHT22;9914;51.008;4.300;2023-09-18T03:05:45;21.70;99.90
19538;DHT22;9914;51.008;4.300;2023-09-18T03:08:13;21.60;99.90
19538;DHT22;9914;51.008;4.300;2023-09-18T03:10:40;21.50;99.90
19538;DHT22;9914;51.008;4.300;2023-09-18T03:13:07;21.50;99.90
19538;DHT22;9914;51.008;4.300;2023-09-18T03:15:33;21.60;99.90
19538;DHT22;9914;51.008;4.300;2023-09-18T03:18:00;22.00;99.90
19538;DHT22;9914;51.008;4.300;2023-09-18T03:20:27;22.20;99.90
19538;DHT22;9914;51.008;4.300;2023-09-18T03:22:54;22.20;99.90
19538;DHT22;9914;51.008;4.300;2023-09-18T03:25:20;22.00;99.90
19538;DHT22;9914;51.008;4.300;2023-09-18T03:27:47;21.80;99.90
19538;DHT22;9914;51.008;4.300;2023-09-18T03:30:13;21.70;99.90
19538;DHT22;9914;51.008;4.300;2023-09-18T03:32:41;21.50;99.90
19538;DHT22;9914;51.008;4.300;2023-09-18T03:35:08;21.40;99.90
19538;DHT22;9914;51.008;4.300;2023-09-18T03:37:41;21.40;99.90
19538;DHT22;9914;51.008;4.300;2023-09-18T03:40:08;21.40;99.90
19538;DHT22;9914;51.008;4.300;2023-09-18T03:42:34;21.70;99.90
19538;DHT22;9914;51.008;4.300;2023-09-18T03:45:00;21.70;99.90
19538;DHT22;9914;51.008;4.300;2023-09-18T03:47:25;21.70;99.90
19538;DHT22;9914;51.008;4.300;2023-09-18T03:49:51;21.70;99.90
19538;DHT22;9914;51.008;4.300;2023-09-18T03:52:17;21.70;99.90
19538;DHT22;9914;51.008;4.300;2023-09-18T03:54:42;21.80;99.90
19538;DHT22;9914;51.008;4.300;2023-09-18T03:57:08;21.80;99.90
19538;DHT22;9914;51.008;4.300;2023-09-18T03:59:34;21.90;99.90
19538;DHT22;9914;51.008;4.300;2023-09-18T04:01:59;21.90;99.90
19538;DHT22;9914;51.008;4.300;2023-09-18T04:04:25;22.00;99.90
19538;DHT22;9914;51.008;4.300;2023-09-18T04:06:50;21.90;99.90
19538;DHT22;9914;51.008;4.300;2023-09-18T04:09:16;21.90;99.90
19538;DHT22;9914;51.008;4.300;2023-09-18T04:11:43;21.90;99.90
19538;DHT22;9914;51.008;4.300;2023-09-18T04:14:09;22.00;99.90
19538;DHT22;9914;51.008;4.300;2023-09-18T04:16:34;21.90;99.90
19538;DHT22;9914;51.008;4.300;2023-09-18T04:19:05;21.90;99.90
19538;DHT22;9914;51.008;4.300;2023-09-18T04:21:31;21.80;99.90
19538;DHT22;9914;51.008;4.300;2023-09-18T04:23:56;21.60;99.90
19538;DHT22;9914;51.008;4.300;2023-09-18T04:26:27;21.50;99.90
19538;DHT22;9914;51.008;4.300;2023-09-18T04:28:56;21.40;99.90
19538;DHT22;9914;51.008;4.300;2023-09-18T04:31:22;21.40;99.90
19538;DHT22;9914;51.008;4.300;2023-09-18T04:33:48;21.30;99.90
19538;DHT22;9914;51.008;4.300;2023-09-18T04:36:14;21.30;99.90
19538;DHT22;9914;51.008;4.300;2023-09-18T04:38:39;21.20;99.90
19538;DHT22;9914;51.008;4.300;2023-09-18T04:41:05;21.20;99.90
19538;DHT22;9914;51.008;4.300;2023-09-18T04:43:33;21.10;99.90
19538;DHT22;9914;51.008;4.300;2023-09-18T04:46:00;21.10;99.90
19538;DHT22;9914;51.008;4.300;2023-09-18T04:48:27;21.00;99.90
19538;DHT22;9914;51.008;4.300;2023-09-18T04:50:53;20.90;99.90
19538;DHT22;9914;51.008;4.300;2023-09-18T04:53:18;20.90;99.90
19538;DHT22;9914;51.008;4.300;2023-09-18T04:55:45;20.80;99.90
19538;DHT22;9914;51.008;4.300;2023-09-18T04:58:15;20.60;99.90
19538;DHT22;9914;51.008;4.300;2023-09-18T05:00:41;20.60;99.90
19538;DHT22;9914;51.008;4.300;2023-09-18T05:03:07;20.60;99.90
19538;DHT22;9914;51.008;4.300;2023-09-18T05:05:34;20.60;99.90
19538;DHT22;9914;51.008;4.300;2023-09-18T05:08:05;20.50;99.90
19538;DHT22;9914;51.008;4.300;2023-09-18T05:10:33;20.50;99.90
19538;DHT22;9914;51.008;4.300;2023-09-18T05:12:59;20.40;99.90
19538;DHT22;9914;51.008;4.300;2023-09-18T05:15:25;20.40;99.90
19538;DHT22;9914;51.008;4.300;2023-09-18T05:17:52;20.40;99.90
19538;DHT22;9914;51.008;4.300;2023-09-18T05:20:21;20.30;99.90
19538;DHT22;9914;51.008;4.300;2023-09-18T05:22:50;20.20;99.90
19538;DHT22;9914;51.008;4.300;2023-09-18T05:25:15;20.20;99.90
19538;DHT22;9914;51.008;4.300;2023-09-18T05:27:42;20.20;99.90
19538;DHT22;9914;51.008;4.300;2023-09-18T05:30:19;20.20;99.90
19538;DHT22;9914;51.008;4.300;2023-09-18T05:32:47;20.30;99.90
19538;DHT22;9914;51.008;4.300;2023-09-18T05:35:14;20.30;99.90
19538;DHT22;9914;51.008;4.300;2023-09-18T05:37:40;20.30;99.90
19538;DHT22;9914;51.008;4.300;2023-09-18T05:40:08;20.30;99.90
19538;DHT22;9914;51.008;4.300;2023-09-18T05:42:37;20.30;99.90
19538;DHT22;9914;51.008;4.300;2023-09-18T05:45:04;20.30;99.90
19538;DHT22;9914;51.008;4.300;2023-09-18T05:47:32;20.20;99.90
19538;DHT22;9914;51.008;4.300;2023-09-18T05:49:58;20.20;99.90
19538;DHT22;9914;51.008;4.300;2023-09-18T05:52:24;20.20;99.90
19538;DHT22;9914;51.008;4.300;2023-09-18T05:54:51;20.20;99.90
19538;DHT22;9914;51.008;4.300;2023-09-18T05:57:18;20.20;99.90
19538;DHT22;9914;51.008;4.300;2023-09-18T05:59:43;20.10;99.90
19538;DHT22;9914;51.008;4.300;2023-09-18T06:02:11;20.10;99.90
19538;DHT22;9914;51.008;4.300;2023-09-18T06:04:36;20.10;99.90
19538;DHT22;9914;51.008;4.300;2023-09-18T06:07:05;20.10;99.90
19538;DHT22;9914;51.008;4.300;2023-09-18T06:09:31;20.10;99.90
19538;DHT22;9914;51.008;4.300;2023-09-18T06:11:56;20.00;99.90
19538;DHT22;9914;51.008;4.300;2023-09-18T06:14:22;20.10;99.90
19538;DHT22;9914;51.008;4.300;2023-09-18T06:16:48;20.00;99.90
19538;DHT22;9914;51.008;4.300;2023-09-18T06:19:16;20.00;99.90
19538;DHT22;9914;51.008;4.300;2023-09-18T06:21:43;20.00;99.90
19538;DHT22;9914;51.008;4.300;2023-09-18T06:24:09;20.00;99.90
19538;DHT22;9914;51.008;4.300;2023-09-18T06:26:35;20.00;99.90
19538;DHT22;9914;51.008;4.300;2023-09-18T06:29:01;20.00;99.90
19538;DHT22;9914;51.008;4.300;2023-09-18T06:31:27;20.00;99.90
19538;DHT22;9914;51.008;4.300;2023-09-18T06:33:53;20.00;99.90
19538;DHT22;9914;51.008;4.300;2023-09-18T06:36:19;20.00;99.90
19538;DHT22;9914;51.008;4.300;2023-09-18T06:38:45;20.00;99.90
19538;DHT22;9914;51.008;4.300;2023-09-18T06:41:10;20.00;99.90
19538;DHT22;9914;51.008;4.300;2023-09-18T06:43:36;20.00;99.90
19538;DHT22;9914;51.008;4.300;2023-09-18T06:46:02;19.90;99.90
19538;DHT22;9914;51.008;4.300;2023-09-18T06:48:27;19.80;99.90
19538;DHT22;9914;51.008;4.300;2023-09-18T06:50:58;20.00;99.90
19538;DHT22;9914;51.008;4.300;2023-09-18T06:53:23;19.90;99.90
19538;DHT22;9914;51.008;4.300;2023-09-18T06:55:49;20.00;99.90
19538;DHT22;9914;51.008;4.300;2023-09-18T06:58:15;20.00;99.90
19538;DHT22;9914;51.008;4.300;2023-09-18T07:00:40;20.00;99.90
19538;DHT22;9914;51.008;4.300;2023-09-18T07:03:06;20.00;99.90
19538;DHT22;9914;51.008;4.300;2023-09-18T07:05:32;20.10;99.90
19538;DHT22;9914;51.008;4.300;2023-09-18T07:07:57;20.00;99.90
19538;DHT22;9914;51.008;4.300;2023-09-18T07:10:23;20.00;99.90
19538;DHT22;9914;51.008;4.300;2023-09-18T07:12:49;20.10;99.90
19538;DHT22;9914;51.008;4.300;2023-09-18T07:15:14;20.00;99.90
19538;DHT22;9914;51.008;4.300;2023-09-18T07:17:40;20.10;99.90
19538;DHT22;9914;51.008;4.300;2023-09-18T07:20:06;20.10;99.90
19538;DHT22;9914;51.008;4.300;2023-09-18T07:22:39;20.00;99.90
19538;DHT22;9914;51.008;4.300;2023-09-18T07:25:06;20.00;99.90
19538;DHT22;9914;51.008;4.300;2023-09-18T07:27:45;20.10;99.90
19538;DHT22;9914;51.008;4.300;2023-09-18T07:30:12;20.10;99.90
19538;DHT22;9914;51.008;4.300;2023-09-18T07:32:39;20.20;99.90
19538;DHT22;9914;51.008;4.300;2023-09-18T07:35:09;20.20;99.90
19538;DHT22;9914;51.008;4.300;2023-09-18T07:37:36;20.20;99.90
19538;DHT22;9914;51.008;4.300;2023-09-18T07:40:06;20.30;99.90
19538;DHT22;9914;51.008;4.300;2023-09-18T07:42:32;20.50;99.90
19538;DHT22;9914;51.008;4.300;2023-09-18T07:44:57;20.60;99.90
19538;DHT22;9914;51.008;4.300;2023-09-18T07:47:23;20.70;99.90
19538;DHT22;9914;51.008;4.300;2023-09-18T07:49:49;20.80;99.90
19538;DHT22;9914;51.008;4.300;2023-09-18T07:52:16;20.70;99.90
19538;DHT22;9914;51.008;4.300;2023-09-18T07:54:42;20.70;99.90
19538;DHT22;9914;51.008;4.300;2023-09-18T07:57:08;20.80;99.90
19538;DHT22;9914;51.008;4.300;2023-09-18T07:59:38;20.90;99.90
19538;DHT22;9914;51.008;4.300;2023-09-18T08:02:05;21.20;99.90
19538;DHT22;9914;51.008;4.300;2023-09-18T08:04:31;21.30;99.90
19538;DHT22;9914;51.008;4.300;2023-09-18T08:06:57;21.40;99.90
19538;DHT22;9914;51.008;4.300;2023-09-18T08:09:24;21.50;99.90
19538;DHT22;9914;51.008;4.300;2023-09-18T08:11:50;21.40;99.90
19538;DHT22;9914;51.008;4.300;2023-09-18T08:14:17;21.50;99.90
19538;DHT22;9914;51.008;4.300;2023-09-18T08:16:43;21.80;99.90
19538;DHT22;9914;51.008;4.300;2023-09-18T08:19:08;21.70;99.90
19538;DHT22;9914;51.008;4.300;2023-09-18T08:21:34;21.60;99.90
19538;DHT22;9914;51.008;4.300;2023-09-18T08:24:00;21.70;99.90
19538;DHT22;9914;51.008;4.300;2023-09-18T08:26:26;21.90;99.90
19538;DHT22;9914;51.008;4.300;2023-09-18T08:28:53;22.00;99.90
19538;DHT22;9914;51.008;4.300;2023-09-18T08:31:19;22.10;99.90
19538;DHT22;9914;51.008;4.300;2023-09-18T08:33:45;21.80;99.90
19538;DHT22;9914;51.008;4.300;2023-09-18T08:36:10;22.00;99.90
19538;DHT22;9914;51.008;4.300;2023-09-18T08:38:36;22.00;99.90
19538;DHT22;9914;51.008;4.300;2023-09-18T08:41:02;22.00;99.90
19538;DHT22;9914;51.008;4.300;2023-09-18T08:43:30;22.00;99.90
19538;DHT22;9914;51.008;4.300;2023-09-18T08:45:56;21.80;99.90
19538;DHT22;9914;51.008;4.300;2023-09-18T08:48:29;21.80;99.90
19538;DHT22;9914;51.008;4.300;2023-09-18T08:51:05;21.90;99.90
19538;DHT22;9914;51.008;4.300;2023-09-18T08:53:32;22.00;99.90
19538;DHT22;9914;51.008;4.300;2023-09-18T08:55:59;21.90;99.90
19538;DHT22;9914;51.008;4.300;2023-09-18T08:58:28;21.90;99.90
19538;DHT22;9914;51.008;4.300;2023-09-18T09:00:55;21.90;99.90
19538;DHT22;9914;51.008;4.300;2023-09-18T09:03:23;21.80;99.90
19538;DHT22;9914;51.008;4.300;2023-09-18T09:05:48;21.70;99.90
19538;DHT22;9914;51.008;4.300;2023-09-18T09:08:15;21.50;99.90
19538;DHT22;9914;51.008;4.300;2023-09-18T09:10:40;21.40;99.90
19538;DHT22;9914;51.008;4.300;2023-09-18T09:13:06;21.40;99.90
19538;DHT22;9914;51.008;4.300;2023-09-18T09:15:43;21.40;99.90
19538;DHT22;9914;51.008;4.300;2023-09-18T09:18:12;21.20;99.90
19538;DHT22;9914;51.008;4.300;2023-09-18T09:20:40;21.20;99.90
19538;DHT22;9914;51.008;4.300;2023-09-18T09:23:09;21.40;99.90
19538;DHT22;9914;51.008;4.300;2023-09-18T09:25:36;21.40;99.90
19538;DHT22;9914;51.008;4.300;2023-09-18T09:28:04;21.40;99.90
19538;DHT22;9914;51.008;4.300;2023-09-18T09:30:31;21.50;99.90
19538;DHT22;9914;51.008;4.300;2023-09-18T09:32:59;21.50;99.90
19538;DHT22;9914;51.008;4.300;2023-09-18T09:35:30;21.40;99.90
19538;DHT22;9914;51.008;4.300;2023-09-18T09:38:10;21.50;99.90
19538;DHT22;9914;51.008;4.300;2023-09-18T09:40:39;21.70;99.90
19538;DHT22;9914;51.008;4.300;2023-09-18T09:43:08;21.70;99.90
19538;DHT22;9914;51.008;4.300;2023-09-18T09:45:34;21.70;99.90
19538;DHT22;9914;51.008;4.300;2023-09-18T09:48:03;21.80;99.90
19538;DHT22;9914;51.008;4.300;2023-09-18T09:50:33;21.90;99.90
19538;DHT22;9914;51.008;4.300;2023-09-18T09:52:59;21.80;99.90
19538;DHT22;9914;51.008;4.300;2023-09-18T09:55:30;21.70;99.90
19538;DHT22;9914;51.008;4.300;2023-09-18T09:58:00;21.60;99.90
19538;DHT22;9914;51.008;4.300;2023-09-18T10:00:31;21.70;99.90
19538;DHT22;9914;51.008;4.300;2023-09-18T10:03:03;21.60;99.90
19538;DHT22;9914;51.008;4.300;2023-09-18T10:05:31;21.70;99.90
19538;DHT22;9914;51.008;4.300;2023-09-18T10:08:04;21.70;99.90
19538;DHT22;9914;51.008;4.300;2023-09-18T10:10:34;21.90;99.90
19538;DHT22;9914;51.008;4.300;2023-09-18T10:13:04;21.80;99.90
19538;DHT22;9914;51.008;4.300;2023-09-18T10:15:34;21.80;99.90
19538;DHT22;9914;51.008;4.300;2023-09-18T10:18:07;21.80;99.90
19538;DHT22;9914;51.008;4.300;2023-09-18T10:20:39;21.80;99.90
19538;DHT22;9914;51.008;4.300;2023-09-18T10:23:15;21.80;99.90
19538;DHT22;9914;51.008;4.300;2023-09-18T10:25:52;22.00;99.90
19538;DHT22;9914;51.008;4.300;2023-09-18T10:28:23;22.10;99.90
19538;DHT22;9914;51.008;4.300;2023-09-18T10:30:49;22.10;99.90
19538;DHT22;9914;51.008;4.300;2023-09-18T10:33:16;22.10;99.90
19538;DHT22;9914;51.008;4.300;2023-09-18T10:35:43;21.90;99.90
19538;DHT22;9914;51.008;4.300;2023-09-18T10:38:09;21.80;99.90
19538;DHT22;9914;51.008;4.300;2023-09-18T10:40:36;22.00;99.90
19538;DHT22;9914;51.008;4.300;2023-09-18T10:43:04;21.90;99.90
19538;DHT22;9914;51.008;4.300;2023-09-18T10:45:35;22.10;99.90
19538;DHT22;9914;51.008;4.300;2023-09-18T10:48:02;22.20;99.90
19538;DHT22;9914;51.008;4.300;2023-09-18T10:50:29;22.50;99.90
19538;DHT22;9914;51.008;4.300;2023-09-18T10:52:57;22.70;99.90
19538;DHT22;9914;51.008;4.300;2023-09-18T10:55:24;22.70;99.90
19538;DHT22;9914;51.008;4.300;2023-09-18T10:57:56;22.70;99.90
19538;DHT22;9914;51.008;4.300;2023-09-18T11:00:24;22.70;99.90
19538;DHT22;9914;51.008;4.300;2023-09-18T11:02:55;22.70;99.90
19538;DHT22;9914;51.008;4.300;2023-09-18T11:05:35;22.50;99.90
19538;DHT22;9914;51.008;4.300;2023-09-18T11:08:27;22.70;99.90
19538;DHT22;9914;51.008;4.300;2023-09-18T11:11:01;22.80;99.90
19538;DHT22;9914;51.008;4.300;2023-09-18T11:13:50;23.00;99.90
19538;DHT22;9914;51.008;4.300;2023-09-18T11:19:00;23.40;99.90
19538;DHT22;9914;51.008;4.300;2023-09-18T11:21:34;23.30;99.90
19538;DHT22;9914;51.008;4.300;2023-09-18T11:24:07;23.40;99.90
19538;DHT22;9914;51.008;4.300;2023-09-18T11:26:39;23.60;99.90
19538;DHT22;9914;51.008;4.300;2023-09-18T11:29:08;23.40;99.90
19538;DHT22;9914;51.008;4.300;2023-09-18T11:31:52;23.30;99.90
19538;DHT22;9914;51.008;4.300;2023-09-18T11:36:48;23.60;99.90
19538;DHT22;9914;51.008;4.300;2023-09-18T11:42:09;23.60;99.90
19538;DHT22;9914;51.008;4.300;2023-09-18T11:44:35;23.80;99.90
19538;DHT22;9914;51.008;4.300;2023-09-18T11:47:07;24.00;99.90
19538;DHT22;9914;51.008;4.300;2023-09-18T11:49:34;23.90;99.90
19538;DHT22;9914;51.008;4.300;2023-09-18T11:52:00;23.90;99.90
19538;DHT22;9914;51.008;4.300;2023-09-18T11:54:27;24.10;99.90
19538;DHT22;9914;51.008;4.300;2023-09-18T11:56:54;23.80;99.90
19538;DHT22;9914;51.008;4.300;2023-09-18T11:59:33;24.00;99.90
19538;DHT22;9914;51.008;4.300;2023-09-18T12:02:00;24.00;99.90
19538;DHT22;9914;51.008;4.300;2023-09-18T12:04:31;24.00;99.90
19538;DHT22;9914;51.008;4.300;2023-09-18T12:06:59;23.90;99.90
19538;DHT22;9914;51.008;4.300;2023-09-18T12:09:32;24.10;99.90
19538;DHT22;9914;51.008;4.300;2023-09-18T12:12:01;24.10;99.90
19538;DHT22;9914;51.008;4.300;2023-09-18T12:14:33;24.30;99.90
19538;DHT22;9914;51.008;4.300;2023-09-18T12:17:02;24.20;99.90
19538;DHT22;9914;51.008;4.300;2023-09-18T12:19:29;24.10;99.90
19538;DHT22;9914;51.008;4.300;2023-09-18T12:21:56;24.10;99.90
19538;DHT22;9914;51.008;4.300;2023-09-18T12:26:48;24.50;99.90
19538;DHT22;9914;51.008;4.300;2023-09-18T12:29:14;24.50;99.90
19538;DHT22;9914;51.008;4.300;2023-09-18T12:31:40;24.70;99.90
19538;DHT22;9914;51.008;4.300;2023-09-18T12:34:17;24.90;99.90
19538;DHT22;9914;51.008;4.300;2023-09-18T12:36:44;25.00;99.90
19538;DHT22;9914;51.008;4.300;2023-09-18T12:39:15;25.10;99.90
19538;DHT22;9914;51.008;4.300;2023-09-18T12:41:43;25.10;99.90
19538;DHT22;9914;51.008;4.300;2023-09-18T12:44:09;25.00;99.90
19538;DHT22;9914;51.008;4.300;2023-09-18T12:46:36;25.00;99.90
19538;DHT22;9914;51.008;4.300;2023-09-18T12:49:23;25.20;99.90
19538;DHT22;9914;51.008;4.300;2023-09-18T12:51:57;25.10;99.90
19538;DHT22;9914;51.008;4.300;2023-09-18T12:54:43;25.00;99.90
19538;DHT22;9914;51.008;4.300;2023-09-18T12:57:14;24.90;99.90
19538;DHT22;9914;51.008;4.300;2023-09-18T12:59:40;24.90;99.90
19538;DHT22;9914;51.008;4.300;2023-09-18T13:02:06;25.00;99.90
19538;DHT22;9914;51.008;4.300;2023-09-18T13:04:37;25.20;99.90
19538;DHT22;9914;51.008;4.300;2023-09-18T13:07:23;25.20;99.90
19538;DHT22;9914;51.008;4.300;2023-09-18T13:10:00;25.20;99.90
19538;DHT22;9914;51.008;4.300;2023-09-18T13:12:59;25.20;99.90
19538;DHT22;9914;51.008;4.300;2023-09-18T13:15:29;25.40;99.90
19538;DHT22;9914;51.008;4.300;2023-09-18T13:17:56;25.80;99.90
19538;DHT22;9914;51.008;4.300;2023-09-18T13:20:27;25.70;99.90
19538;DHT22;9914;51.008;4.300;2023-09-18T13:22:58;25.70;99.90
19538;DHT22;9914;51.008;4.300;2023-09-18T13:25:35;25.50;99.90
19538;DHT22;9914;51.008;4.300;2023-09-18T13:28:04;25.60;99.90
19538;DHT22;9914;51.008;4.300;2023-09-18T13:30:31;25.50;99.90
19538;DHT22;9914;51.008;4.300;2023-09-18T13:33:13;25.40;99.90
19538;DHT22;9914;51.008;4.300;2023-09-18T13:35:43;25.40;99.90
19538;DHT22;9914;51.008;4.300;2023-09-18T13:38:09;25.50;99.90
19538;DHT22;9914;51.008;4.300;2023-09-18T13:40:43;25.80;99.90
19538;DHT22;9914;51.008;4.300;2023-09-18T13:43:10;25.90;99.90
19538;DHT22;9914;51.008;4.300;2023-09-18T13:45:36;25.90;99.90
19538;DHT22;9914;51.008;4.300;2023-09-18T13:48:05;26.00;99.90
19538;DHT22;9914;51.008;4.300;2023-09-18T13:50:36;25.90;99.90
19538;DHT22;9914;51.008;4.300;2023-09-18T13:53:02;25.90;99.90
19538;DHT22;9914;51.008;4.300;2023-09-18T13:55:32;25.80;99.90
19538;DHT22;9914;51.008;4.300;2023-09-18T13:57:58;25.30;99.90
19538;DHT22;9914;51.008;4.300;2023-09-18T14:00:24;25.00;99.90
19538;DHT22;9914;51.008;4.300;2023-09-18T14:02:51;25.00;99.90
19538;DHT22;9914;51.008;4.300;2023-09-18T14:05:16;24.90;99.90
19538;DHT22;9914;51.008;4.300;2023-09-18T14:07:42;24.80;99.90
19538;DHT22;9914;51.008;4.300;2023-09-18T14:10:09;24.60;99.90
19538;DHT22;9914;51.008;4.300;2023-09-18T14:12:38;24.60;99.90
19538;DHT22;9914;51.008;4.300;2023-09-18T14:15:09;24.50;99.90
19538;DHT22;9914;51.008;4.300;2023-09-18T14:17:35;24.40;99.90
19538;DHT22;9914;51.008;4.300;2023-09-18T14:20:02;24.20;99.90
19538;DHT22;9914;51.008;4.300;2023-09-18T14:22:32;24.10;99.90
19538;DHT22;9914;51.008;4.300;2023-09-18T14:24:58;23.90;99.90
19538;DHT22;9914;51.008;4.300;2023-09-18T14:27:23;22.80;99.90
19538;DHT22;9914;51.008;4.300;2023-09-18T14:29:49;22.30;99.90
19538;DHT22;9914;51.008;4.300;2023-09-18T14:32:16;22.00;99.90
19538;DHT22;9914;51.008;4.300;2023-09-18T14:34:41;21.90;99.90
19538;DHT22;9914;51.008;4.300;2023-09-18T14:37:07;22.00;99.90
19538;DHT22;9914;51.008;4.300;2023-09-18T14:39:34;22.10;99.90
19538;DHT22;9914;51.008;4.300;2023-09-18T14:41:59;22.10;99.90
19538;DHT22;9914;51.008;4.300;2023-09-18T14:44:25;21.90;99.90
19538;DHT22;9914;51.008;4.300;2023-09-18T14:46:53;21.60;99.90
19538;DHT22;9914;51.008;4.300;2023-09-18T14:49:19;21.10;99.90
19538;DHT22;9914;51.008;4.300;2023-09-18T14:51:45;20.80;99.90
19538;DHT22;9914;51.008;4.300;2023-09-18T14:54:11;20.60;99.90
19538;DHT22;9914;51.008;4.300;2023-09-18T14:56:37;20.30;99.90
19538;DHT22;9914;51.008;4.300;2023-09-18T14:59:03;20.20;99.90
19538;DHT22;9914;51.008;4.300;2023-09-18T15:01:30;20.10;99.90
19538;DHT22;9914;51.008;4.300;2023-09-18T15:03:56;20.00;99.90
19538;DHT22;9914;51.008;4.300;2023-09-18T15:06:21;20.00;99.90
19538;DHT22;9914;51.008;4.300;2023-09-18T15:08:47;20.10;99.90
19538;DHT22;9914;51.008;4.300;2023-09-18T15:11:13;20.10;99.90
19538;DHT22;9914;51.008;4.300;2023-09-18T15:13:43;20.20;99.90
19538;DHT22;9914;51.008;4.300;2023-09-18T15:16:08;20.50;99.90
19538;DHT22;9914;51.008;4.300;2023-09-18T15:18:34;20.90;99.90
19538;DHT22;9914;51.008;4.300;2023-09-18T15:21:01;21.20;99.90
19538;DHT22;9914;51.008;4.300;2023-09-18T15:23:27;21.40;99.90
19538;DHT22;9914;51.008;4.300;2023-09-18T15:25:53;21.50;99.90
19538;DHT22;9914;51.008;4.300;2023-09-18T15:28:26;21.60;99.90
19538;DHT22;9914;51.008;4.300;2023-09-18T15:30:54;21.50;99.90
19538;DHT22;9914;51.008;4.300;2023-09-18T15:33:20;21.50;99.90
19538;DHT22;9914;51.008;4.300;2023-09-18T15:35:48;21.50;99.90
19538;DHT22;9914;51.008;4.300;2023-09-18T15:38:14;21.40;99.90
19538;DHT22;9914;51.008;4.300;2023-09-18T15:40:40;21.40;99.90
19538;DHT22;9914;51.008;4.300;2023-09-18T15:43:06;21.40;99.90
19538;DHT22;9914;51.008;4.300;2023-09-18T15:45:32;21.40;99.90
19538;DHT22;9914;51.008;4.300;2023-09-18T15:48:01;21.40;99.90
19538;DHT22;9914;51.008;4.300;2023-09-18T15:50:26;21.50;99.90
19538;DHT22;9914;51.008;4.300;2023-09-18T15:52:52;22.00;99.90
19538;DHT22;9914;51.008;4.300;2023-09-18T15:55:18;22.80;99.90
19538;DHT22;9914;51.008;4.300;2023-09-18T15:57:43;23.50;99.90
19538;DHT22;9914;51.008;4.300;2023-09-18T16:00:10;23.70;99.90
19538;DHT22;9914;51.008;4.300;2023-09-18T16:02:36;24.00;99.90